Time;durP1;ratioP1;P1;durP2;ratioP2;P2;SDS_P1;SDS_P2;PMS_P1;PMS_P2;Temp;Humidity;BMP_temperature;BMP_pressure;BME280_temperature;BME280_humidity;BME280_pressure;Samples;Min_cycle;Max_cycle;Signal;HPM_P1;HPM_P2
2021/08/09 00:01:42;;;;;;;1.63;1.00;;;16.70;88.80;;;;;;5013203;28;20518;-80
2021/08/09 00:04:08;;;;;;;2.45;1.05;;;16.60;89.50;;;;;;5029008;28;20024;-80
2021/08/09 00:06:34;;;;;;;4.40;1.02;;;16.60;90.00;;;;;;5012530;28;20058;-81
2021/08/09 00:09:02;;;;;;;1.90;1.17;;;16.50;90.20;;;;;;5013032;28;20022;-81
2021/08/09 00:11:28;;;;;;;2.20;1.10;;;16.50;90.20;;;;;;5012667;28;20026;-81
2021/08/09 00:13:54;;;;;;;3.90;1.23;;;16.40;90.20;;;;;;5013110;28;20029;-82
2021/08/09 00:16:19;;;;;;;5.07;1.25;;;16.40;90.30;;;;;;5013522;28;20026;-82
2021/08/09 00:18:46;;;;;;;2.75;1.20;;;16.40;90.40;;;;;;5012915;28;20033;-81
2021/08/09 00:21:14;;;;;;;1.50;0.85;;;16.30;90.40;;;;;;5012592;28;20127;-81
2021/08/09 00:23:39;;;;;;;3.78;1.30;;;16.30;90.40;;;;;;5012705;28;20117;-80
2021/08/09 00:26:05;;;;;;;3.55;1.20;;;16.30;90.40;;;;;;5012773;28;20060;-79
2021/08/09 00:28:30;;;;;;;1.98;1.20;;;16.20;90.50;;;;;;5012239;28;20119;-80
2021/08/09 00:30:56;;;;;;;2.95;1.10;;;16.20;90.70;;;;;;5012373;28;20509;-80
2021/08/09 00:33:22;;;;;;;1.95;0.93;;;16.20;90.80;;;;;;5013343;28;20022;-80
2021/08/09 00:35:48;;;;;;;2.28;1.20;;;16.10;90.70;;;;;;5012963;28;20482;-80
2021/08/09 00:38:13;;;;;;;1.55;0.90;;;16.10;90.70;;;;;;5011887;28;20042;-80
2021/08/09 00:40:39;;;;;;;1.88;1.58;;;16.10;90.50;;;;;;5012353;28;20025;-80
2021/08/09 00:43:04;;;;;;;3.80;1.30;;;16.10;90.50;;;;;;5012165;28;20053;-79
2021/08/09 00:45:30;;;;;;;1.63;0.90;;;16.10;90.40;;;;;;5014137;28;20085;-79
2021/08/09 00:47:56;;;;;;;1.38;0.85;;;16.10;90.50;;;;;;5015867;28;20550;-80
2021/08/09 00:50:22;;;;;;;1.58;1.08;;;16.10;90.50;;;;;;5016470;28;20093;-79
2021/08/09 00:52:47;;;;;;;3.50;1.13;;;16.00;90.50;;;;;;5016200;28;20028;-79
2021/08/09 00:55:13;;;;;;;2.13;1.00;;;15.80;90.70;;;;;;5015570;28;20117;-80
2021/08/09 00:57:39;;;;;;;2.28;1.00;;;15.80;90.90;;;;;;5015997;28;20132;-79
2021/08/09 01:00:06;;;;;;;3.60;1.35;;;15.80;91.00;;;;;;5015739;28;20072;-79
2021/08/09 01:02:32;;;;;;;4.63;1.27;;;15.70;91.00;;;;;;5015312;28;20455;-80
2021/08/09 01:05:03;;;;;;;3.38;0.95;;;15.70;91.10;;;;;;5015913;28;20022;-79
2021/08/09 01:07:32;;;;;;;;;;;15.70;91.20;;;;;;5032291;28;20074;-79
2021/08/09 01:10:14;;;;;;;6.15;1.63;;;15.60;91.30;;;;;;5032036;28;19939;-79
2021/08/09 01:13:13;;;;;;;4.47;1.00;;;15.70;91.40;;;;;;5015892;28;20022;-80
2021/08/09 01:15:42;;;;;;;2.95;1.10;;;15.60;91.40;;;;;;5016428;28;20026;-79
2021/08/09 01:18:08;;;;;;;3.08;1.00;;;15.50;91.40;;;;;;5015687;28;20085;-79
2021/08/09 01:20:51;;;;;;;2.35;1.20;;;15.50;91.30;;;;;;5016259;28;20095;-79
2021/08/09 01:23:35;;;;;;;2.88;1.00;;;15.50;91.40;;;;;;5014688;28;20053;-80
2021/08/09 01:26:39;;;;;;;4.28;1.10;;;15.60;91.40;;;;;;5015257;28;20022;-79
2021/08/09 01:29:17;;;;;;;3.25;1.23;;;15.60;91.40;;;;;;5016447;28;20026;-79
2021/08/09 01:31:51;;;;;;;3.55;0.98;;;15.60;91.00;;;;;;5031752;28;20022;-79
2021/08/09 01:34:19;;;;;;;3.60;1.00;;;15.60;91.10;;;;;;5014788;28;20026;-79
2021/08/09 01:36:48;;;;;;;5.30;1.58;;;15.60;91.30;;;;;;5016020;28;20048;-80
2021/08/09 01:39:16;;;;;;;3.00;1.38;;;15.50;91.30;;;;;;5016146;28;20060;-81
2021/08/09 01:41:42;;;;;;;2.75;1.20;;;15.50;91.30;;;;;;5015118;28;20018;-81
2021/08/09 01:44:09;;;;;;;2.67;1.05;;;15.40;91.40;;;;;;5015065;28;20455;-81
2021/08/09 01:46:36;;;;;;;3.33;1.27;;;15.40;91.50;;;;;;5014714;28;20065;-81
2021/08/09 01:49:03;;;;;;;1.75;1.05;;;15.40;91.50;;;;;;5031695;28;20026;-81
2021/08/09 01:51:29;;;;;;;1.98;0.90;;;15.30;91.60;;;;;;5014869;28;20022;-81
2021/08/09 01:53:55;;;;;;;2.42;1.10;;;15.30;91.70;;;;;;5015137;28;20026;-81
2021/08/09 01:56:21;;;;;;;2.10;1.00;;;15.20;91.80;;;;;;5014827;28;20563;-82
2021/08/09 01:58:48;;;;;;;2.88;1.08;;;15.20;91.80;;;;;;5015420;28;20022;-82
2021/08/09 02:01:14;;;;;;;4.30;1.13;;;15.20;91.80;;;;;;5015503;28;20032;-89
2021/08/09 02:03:40;;;;;;;3.08;1.20;;;15.20;91.90;;;;;;5015087;28;20089;-82
2021/08/09 02:06:06;;;;;;;3.17;1.30;;;15.20;91.90;;;;;;5015001;28;20493;-82
2021/08/09 02:08:34;;;;;;;3.80;1.00;;;15.20;91.90;;;;;;5014531;28;20018;-82
2021/08/09 02:11:29;;;;;;;4.57;1.05;;;15.00;91.80;;;;;;5014751;28;20076;-82
2021/08/09 02:14:03;;;;;;;2.22;1.00;;;15.10;91.90;;;;;;4999253;28;20058;-82
2021/08/09 02:16:34;;;;;;;4.10;1.02;;;14.90;91.80;;;;;;5014574;28;20025;-82
2021/08/09 02:19:10;;;;;;;4.97;1.00;;;15.00;91.90;;;;;;5014811;28;20089;-81
2021/08/09 02:21:47;;;;;;;2.17;1.00;;;15.00;91.80;;;;;;5014247;28;20459;-81
2021/08/09 02:24:19;;;;;;;2.47;1.00;;;15.00;91.90;;;;;;5014651;28;20040;-79
2021/08/09 02:26:52;;;;;;;3.30;1.48;;;15.00;91.80;;;;;;5014036;28;20522;-79
2021/08/09 02:29:32;;;;;;;2.17;0.98;;;15.00;91.80;;;;;;5013711;28;20018;-80
2021/08/09 02:32:00;;;;;;;7.80;1.30;;;15.00;91.90;;;;;;5031022;28;20125;-79
2021/08/09 02:34:32;;;;;;;1.75;1.10;;;15.00;91.80;;;;;;5014783;28;20415;-80
2021/08/09 02:36:58;;;;;;;;;;;15.00;91.70;;;;;;5014558;28;20067;-80
2021/08/09 02:39:24;;;;;;;2.55;0.80;;;15.00;91.70;;;;;;5013808;28;20316;-80
2021/08/09 02:41:50;;;;;;;1.13;0.80;;;14.90;91.80;;;;;;5030948;28;20018;-81
2021/08/09 02:44:16;;;;;;;2.85;0.95;;;15.00;91.80;;;;;;5014159;28;20080;-81
2021/08/09 02:46:42;;;;;;;2.95;1.00;;;15.00;91.70;;;;;;5013916;28;20037;-82
2021/08/09 02:49:11;;;;;;;2.00;0.93;;;15.00;91.70;;;;;;5015198;28;20018;-79
2021/08/09 02:51:38;;;;;;;3.10;1.30;;;14.90;91.70;;;;;;5014532;28;20026;-79
2021/08/09 02:54:04;;;;;;;2.17;1.02;;;15.00;91.70;;;;;;5013896;28;20108;-79
2021/08/09 02:56:32;;;;;;;2.33;0.90;;;15.00;91.50;;;;;;5013255;28;20112;-79
2021/08/09 02:58:57;;;;;;;1.70;0.90;;;15.00;91.40;;;;;;5014987;28;20364;-80
2021/08/09 03:01:27;;;;;;;1.35;1.00;;;15.00;91.40;;;;;;5014420;28;20025;-80
2021/08/09 03:03:56;;;;;;;1.88;1.10;;;14.90;91.70;;;;;;5013691;28;20053;-80
2021/08/09 03:06:23;;;;;;;3.20;1.15;;;14.80;91.90;;;;;;5029717;28;20037;-80
2021/08/09 03:08:49;;;;;;;1.08;0.90;;;14.80;91.90;;;;;;5013115;28;20032;-81
2021/08/09 03:11:15;;;;;;;1.45;0.80;;;14.80;91.80;;;;;;5013638;28;20018;-81
2021/08/09 03:13:46;;;;;;;1.23;0.75;;;14.80;91.80;;;;;;5013378;28;20040;-81
2021/08/09 03:16:12;;;;;;;1.55;0.73;;;14.90;91.80;;;;;;5013421;28;20116;-81
2021/08/09 03:18:37;;;;;;;1.98;0.82;;;14.90;91.80;;;;;;5012865;28;20061;-81
2021/08/09 03:21:04;;;;;;;2.33;1.10;;;14.90;91.70;;;;;;5013572;28;20021;-80
2021/08/09 03:23:29;;;;;;;1.10;0.80;;;14.90;91.70;;;;;;5029480;28;20033;-81
2021/08/09 03:25:55;;;;;;;3.75;1.00;;;14.90;91.80;;;;;;5029813;28;20022;-81
2021/08/09 03:28:20;;;;;;;3.25;1.02;;;14.80;91.80;;;;;;5012475;28;20091;-82
2021/08/09 03:30:46;;;;;;;1.77;0.80;;;14.80;91.80;;;;;;5029761;28;20455;-82
2021/08/09 03:33:12;;;;;;;3.83;1.23;;;14.90;91.80;;;;;;5013357;28;20029;-81
2021/08/09 03:35:37;;;;;;;2.92;0.80;;;14.90;91.80;;;;;;5013026;28;20109;-82
2021/08/09 03:38:03;;;;;;;1.25;1.00;;;14.90;91.80;;;;;;5013382;28;20049;-82
2021/08/09 03:40:29;;;;;;;2.45;0.70;;;14.90;91.90;;;;;;5013003;28;20506;-82
2021/08/09 03:42:54;;;;;;;2.35;0.90;;;14.90;91.80;;;;;;5013470;28;20458;-82
2021/08/09 03:45:20;;;;;;;2.08;0.80;;;14.80;92.00;;;;;;5012770;28;20065;-88
2021/08/09 03:47:46;;;;;;;2.95;1.00;;;14.70;92.20;;;;;;5013469;28;20034;-82
2021/08/09 03:50:12;;;;;;;1.67;1.23;;;14.70;92.40;;;;;;5013089;28;20475;-79
2021/08/09 03:52:49;;;;;;;2.55;0.98;;;14.80;92.40;;;;;;5012172;28;20046;-80
2021/08/09 03:55:15;;;;;;;1.20;0.90;;;14.80;92.40;;;;;;5013840;28;20025;-80
2021/08/09 03:57:41;;;;;;;2.53;0.80;;;14.70;92.40;;;;;;5012378;28;20528;-80
2021/08/09 04:00:08;;;;;;;1.42;0.90;;;14.70;92.40;;;;;;5012765;28;20084;-79
2021/08/09 04:02:34;;;;;;;6.82;1.10;;;14.70;92.50;;;;;;5012115;28;20018;-79
2021/08/09 04:05:00;;;;;;;2.17;0.90;;;14.80;92.20;;;;;;5012398;28;20021;-78
2021/08/09 04:07:29;;;;;;;2.00;0.95;;;14.80;91.90;;;;;;5012254;28;20124;-79
2021/08/09 04:09:55;;;;;;;1.65;0.90;;;14.80;92.00;;;;;;5012146;28;20109;-79
2021/08/09 04:12:21;;;;;;;3.90;1.00;;;14.80;92.30;;;;;;5013675;28;20046;-79
2021/08/09 04:14:47;;;;;;;2.70;0.90;;;14.80;92.10;;;;;;5013208;28;20084;-79
2021/08/09 04:17:13;;;;;;;1.10;1.00;;;14.70;92.30;;;;;;5012994;28;20034;-81
2021/08/09 04:19:39;;;;;;;1.95;0.75;;;14.70;92.40;;;;;;5013593;28;20065;-82
2021/08/09 04:22:05;;;;;;;2.65;1.10;;;14.70;92.30;;;;;;5016563;28;20029;-81
2021/08/09 04:24:30;;;;;;;2.15;0.95;;;14.60;92.40;;;;;;5017423;28;20026;-80
2021/08/09 04:26:56;;;;;;;1.95;1.00;;;14.50;92.50;;;;;;5016331;28;20032;-81
2021/08/09 04:29:22;;;;;;;1.48;0.95;;;14.60;92.40;;;;;;5016508;28;20022;-80
2021/08/09 04:31:47;;;;;;;3.22;1.05;;;14.70;92.10;;;;;;5016053;28;20022;-81
2021/08/09 04:34:13;;;;;;;4.47;0.93;;;14.80;92.00;;;;;;5017529;28;20360;-80
2021/08/09 04:36:39;;;;;;;2.05;1.08;;;14.80;91.90;;;;;;5015775;28;20100;-81
2021/08/09 04:39:05;;;;;;;2.92;1.10;;;14.70;92.10;;;;;;5032920;28;20022;-80
2021/08/09 04:41:30;;;;;;;2.33;0.80;;;14.70;92.30;;;;;;5015648;28;20045;-80
2021/08/09 04:43:56;;;;;;;3.95;0.85;;;14.80;92.30;;;;;;5015653;28;20022;-79
2021/08/09 04:46:22;;;;;;;2.58;0.80;;;14.80;92.10;;;;;;5032493;28;20038;-79
2021/08/09 04:48:47;;;;;;;2.15;0.85;;;14.80;92.30;;;;;;5015376;28;20030;-79
2021/08/09 04:51:13;;;;;;;1.25;0.88;;;14.70;92.40;;;;;;5016679;28;20029;-79
2021/08/09 04:53:39;;;;;;;1.30;0.90;;;14.80;92.40;;;;;;5015414;28;20473;-79
2021/08/09 04:56:05;;;;;;;3.40;1.08;;;14.80;92.30;;;;;;5015933;28;20410;-79
2021/08/09 04:58:30;;;;;;;4.55;1.10;;;14.80;92.50;;;;;;5015343;28;20022;-79
2021/08/09 05:00:56;;;;;;;4.03;1.00;;;14.80;92.50;;;;;;5015992;28;20117;-79
2021/08/09 05:03:22;;;;;;;1.20;0.80;;;14.80;92.60;;;;;;5032253;28;20080;-79
2021/08/09 05:05:48;;;;;;;2.97;1.10;;;14.80;92.60;;;;;;5031783;28;20032;-79
2021/08/09 05:08:14;;;;;;;2.28;1.00;;;14.80;92.60;;;;;;5015445;28;20033;-80
2021/08/09 05:10:39;;;;;;;1.50;1.02;;;14.80;92.80;;;;;;5031380;28;20028;-79
2021/08/09 05:13:06;;;;;;;2.72;1.00;;;14.80;92.90;;;;;;5015271;28;20488;-79
2021/08/09 05:15:33;;;;;;;2.35;1.00;;;14.90;92.90;;;;;;5014591;28;20410;-80
2021/08/09 05:17:59;;;;;;;2.35;0.95;;;14.90;92.90;;;;;;5015186;28;20030;-80
2021/08/09 05:20:24;;;;;;;1.60;1.08;;;15.00;92.70;;;;;;5015151;28;20026;-78
2021/08/09 05:22:50;;;;;;;3.13;1.08;;;15.10;92.70;;;;;;5015929;28;20018;-81
2021/08/09 05:25:16;;;;;;;1.90;1.10;;;15.10;92.50;;;;;;5016471;28;20473;-81
2021/08/09 05:27:42;;;;;;;1.63;1.05;;;15.20;92.60;;;;;;5015062;28;20080;-82
2021/08/09 05:30:09;;;;;;;1.77;1.20;;;15.20;92.50;;;;;;5014999;28;20048;-82
2021/08/09 05:32:37;;;;;;;2.65;1.27;;;15.20;92.20;;;;;;5013935;28;20068;-83
2021/08/09 05:35:04;;;;;;;2.13;0.93;;;15.30;92.00;;;;;;5016443;28;20033;-82
2021/08/09 05:37:32;;;;;;;3.40;1.17;;;15.40;91.90;;;;;;5009557;28;20046;-82
2021/08/09 05:39:58;;;;;;;4.10;1.10;;;15.40;91.90;;;;;;5030098;28;20022;-82
2021/08/09 05:42:23;;;;;;;4.05;1.33;;;15.50;91.90;;;;;;5015745;28;20481;-82
2021/08/09 05:44:49;;;;;;;4.60;1.00;;;15.40;92.00;;;;;;4995429;28;20066;-81
2021/08/09 05:47:15;;;;;;;2.38;1.35;;;15.40;92.10;;;;;;4995365;28;20062;-82
2021/08/09 05:49:40;;;;;;;2.88;1.10;;;15.40;92.20;;;;;;4995100;28;20029;-82
2021/08/09 05:52:06;;;;;;;2.60;1.30;;;15.50;92.40;;;;;;4996788;28;20367;-81
2021/08/09 05:54:32;;;;;;;4.13;1.27;;;15.50;92.50;;;;;;4995146;28;20098;-80
2021/08/09 05:56:57;;;;;;;3.25;1.20;;;15.50;92.60;;;;;;4995330;28;20026;-79
2021/08/09 05:59:23;;;;;;;3.67;1.60;;;15.50;92.70;;;;;;4994931;28;20053;-79
2021/08/09 06:01:48;;;;;;;3.85;1.23;;;15.50;92.80;;;;;;4994647;28;20415;-80
2021/08/09 06:04:14;;;;;;;3.65;1.30;;;15.50;92.80;;;;;;4996095;28;20057;-79
2021/08/09 06:06:41;;;;;;;1.85;1.00;;;15.40;92.80;;;;;;5001470;28;20486;-80
2021/08/09 06:09:07;;;;;;;2.90;1.25;;;15.50;92.80;;;;;;5014653;28;20076;-80
2021/08/09 06:11:33;;;;;;;1.88;1.17;;;15.50;92.70;;;;;;5014383;28;20034;-80
2021/08/09 06:13:58;;;;;;;4.13;1.23;;;15.50;92.50;;;;;;5014469;28;20024;-81
2021/08/09 06:16:25;;;;;;;5.45;1.45;;;15.50;92.60;;;;;;5014682;28;20471;-81
2021/08/09 06:18:51;;;;;;;3.20;1.30;;;15.50;92.70;;;;;;5013556;28;20029;-79
2021/08/09 06:21:16;;;;;;;2.38;1.10;;;15.60;92.50;;;;;;5013873;28;20375;-81
2021/08/09 06:23:43;;;;;;;3.25;1.10;;;15.60;92.00;;;;;;5013421;28;20112;-81
2021/08/09 06:26:08;;;;;;;2.38;1.15;;;15.60;91.90;;;;;;5013761;28;20017;-80
2021/08/09 06:28:35;;;;;;;3.53;1.20;;;15.70;91.70;;;;;;5013442;28;20022;-81
2021/08/09 06:31:01;;;;;;;2.78;1.40;;;15.80;91.60;;;;;;5014336;28;20021;-80
2021/08/09 06:33:27;;;;;;;3.30;1.30;;;15.80;91.70;;;;;;5015240;28;20358;-79
2021/08/09 06:35:52;;;;;;;3.00;1.30;;;15.90;91.60;;;;;;5012898;28;20530;-80
2021/08/09 06:38:18;;;;;;;3.97;1.20;;;15.90;91.60;;;;;;5012969;28;20053;-81
2021/08/09 06:40:45;;;;;;;5.38;1.00;;;15.90;91.40;;;;;;5012830;28;20352;-80
2021/08/09 06:43:11;;;;;;;4.13;1.25;;;16.00;91.70;;;;;;5027565;28;20057;-77
2021/08/09 06:45:41;;;;;;;5.10;1.25;;;16.00;91.60;;;;;;5010982;28;20079;-78
2021/08/09 06:48:08;;;;;;;2.60;1.02;;;16.10;91.40;;;;;;5013718;28;20026;-81
2021/08/09 06:50:33;;;;;;;3.75;1.10;;;16.10;91.20;;;;;;5012254;28;20052;-87
2021/08/09 06:52:59;;;;;;;4.95;1.38;;;16.20;91.20;;;;;;5013405;28;20472;-83
2021/08/09 06:55:25;;;;;;;3.05;1.20;;;16.30;91.00;;;;;;5014763;28;20403;-84
2021/08/09 06:57:50;;;;;;;4.63;1.30;;;16.30;90.70;;;;;;5013156;28;20792;-83
2021/08/09 07:00:16;;;;;;;2.75;1.30;;;16.40;90.30;;;;;;5013513;28;20080;-82
2021/08/09 07:02:42;;;;;;;3.88;1.08;;;16.50;90.20;;;;;;5028060;28;20402;-78
2021/08/09 07:05:08;;;;;;;4.40;1.13;;;16.60;90.10;;;;;;5001148;28;20415;-77
2021/08/09 07:07:35;;;;;;;2.67;1.40;;;16.60;90.10;;;;;;5012527;28;20439;-79
2021/08/09 07:10:01;;;;;;;3.45;0.98;;;16.70;89.70;;;;;;5012656;28;20021;-77
2021/08/09 07:12:27;;;;;;;3.33;0.93;;;16.70;89.40;;;;;;5012932;28;20127;-77
2021/08/09 07:14:52;;;;;;;2.75;1.00;;;16.80;89.30;;;;;;5012057;28;20402;-77
2021/08/09 07:17:18;;;;;;;2.00;1.10;;;16.80;89.30;;;;;;5011710;28;20030;-78
2021/08/09 07:19:43;;;;;;;3.90;1.40;;;16.90;89.50;;;;;;5011812;28;20104;-78
2021/08/09 07:22:09;;;;;;;4.97;1.08;;;16.90;89.50;;;;;;5005680;28;20375;-77
2021/08/09 07:24:36;;;;;;;4.10;1.30;;;16.90;89.70;;;;;;5011886;28;20025;-77
2021/08/09 07:27:04;;;;;;;2.22;0.85;;;16.90;89.90;;;;;;5012240;28;20036;-77
2021/08/09 07:29:31;;;;;;;4.18;1.30;;;16.90;89.90;;;;;;5013538;28;20030;-78
2021/08/09 07:31:57;;;;;;;5.10;1.20;;;17.00;90.00;;;;;;5012028;28;20026;-79
2021/08/09 07:34:23;;;;;;;5.28;1.23;;;17.00;90.10;;;;;;5013653;28;20080;-77
2021/08/09 07:36:48;;;;;;;3.25;1.20;;;17.10;90.00;;;;;;5011097;28;20041;-78
2021/08/09 07:39:14;;;;;;;2.47;1.00;;;17.20;89.70;;;;;;5012720;28;20026;-78
2021/08/09 07:41:40;;;;;;;3.30;0.90;;;17.30;89.80;;;;;;5012283;28;20084;-78
2021/08/09 07:44:06;;;;;;;1.70;1.08;;;17.30;88.90;;;;;;5011726;28;20017;-78
2021/08/09 07:46:31;;;;;;;3.90;0.98;;;17.30;89.70;;;;;;5013918;28;20037;-78
2021/08/09 07:48:57;;;;;;;3.25;1.02;;;17.40;89.30;;;;;;5011287;28;20049;-77
2021/08/09 07:51:23;;;;;;;3.35;0.82;;;17.50;88.50;;;;;;5012488;28;20025;-79
2021/08/09 07:53:48;;;;;;;2.72;0.95;;;17.60;87.10;;;;;;5008564;28;20045;-77
2021/08/09 07:56:14;;;;;;;3.15;0.75;;;17.70;86.50;;;;;;5011049;28;20022;-77
2021/08/09 07:58:40;;;;;;;3.80;0.98;;;17.70;86.80;;;;;;4997120;28;20100;-80
2021/08/09 08:01:07;;;;;;;2.70;1.00;;;17.80;86.50;;;;;;5008689;28;20026;-77
2021/08/09 08:03:32;;;;;;;2.92;0.80;;;17.90;85.60;;;;;;4992440;28;20141;-76
2021/08/09 08:05:58;;;;;;;1.95;0.80;;;18.00;85.00;;;;;;4991212;28;20101;-76
2021/08/09 08:08:23;;;;;;;5.63;1.00;;;18.10;84.90;;;;;;4995978;28;20176;-79
2021/08/09 08:10:49;;;;;;;4.25;1.10;;;18.10;85.20;;;;;;5011406;28;20458;-79
2021/08/09 08:13:15;;;;;;;2.55;0.90;;;18.10;85.20;;;;;;5011382;28;20033;-78
2021/08/09 08:15:40;;;;;;;3.05;1.02;;;18.20;84.00;;;;;;5010822;28;20033;-77
2021/08/09 08:18:06;;;;;;;2.25;1.08;;;18.30;83.40;;;;;;5010110;28;20109;-78
2021/08/09 08:20:32;;;;;;;2.28;0.93;;;18.40;83.20;;;;;;5028259;28;20363;-78
2021/08/09 08:23:01;;;;;;;2.65;0.90;;;18.40;82.90;;;;;;5010891;28;20444;-77
2021/08/09 08:25:27;;;;;;;1.30;0.70;;;18.50;82.60;;;;;;5010824;28;20101;-77
2021/08/09 08:27:53;;;;;;;2.72;0.90;;;18.60;81.20;;;;;;5011580;28;20061;-78
2021/08/09 08:30:20;;;;;;;1.85;0.75;;;18.70;79.70;;;;;;5010892;28;20018;-78
2021/08/09 08:32:46;;;;;;;2.25;0.80;;;18.70;80.50;;;;;;5010616;28;20018;-78
2021/08/09 08:35:12;;;;;;;3.05;1.10;;;18.70;80.60;;;;;;5011179;28;20029;-78
2021/08/09 08:37:37;;;;;;;4.18;1.00;;;18.80;81.40;;;;;;5010469;28;20050;-79
2021/08/09 08:40:04;;;;;;;3.33;0.93;;;18.80;81.50;;;;;;5011259;28;20391;-77
2021/08/09 08:42:30;;;;;;;3.40;0.90;;;18.90;80.30;;;;;;5011194;28;20076;-82
2021/08/09 08:44:56;;;;;;;3.03;0.98;;;18.90;79.30;;;;;;5008503;28;20051;-79
2021/08/09 08:47:21;;;;;;;7.22;1.05;;;18.90;80.20;;;;;;5011339;28;20379;-77
2021/08/09 08:49:47;;;;;;;4.90;0.80;;;19.00;79.80;;;;;;5011385;28;20025;-81
2021/08/09 08:52:14;;;;;;;2.08;0.65;;;19.00;79.90;;;;;;5011632;28;20030;-80
2021/08/09 08:54:40;;;;;;;2.85;0.90;;;19.10;78.50;;;;;;5010817;28;20044;-80
2021/08/09 08:57:19;;;;;;;3.15;0.85;;;19.20;78.30;;;;;;5012644;28;20026;-78
2021/08/09 08:59:45;;;;;;;4.35;0.77;;;19.30;78.30;;;;;;5009453;28;20045;-86
2021/08/09 09:02:32;;;;;;;3.38;0.82;;;19.30;76.50;;;;;;5011659;28;20363;-82
2021/08/09 09:05:09;;;;;;;1.67;0.63;;;19.30;77.50;;;;;;5008022;28;20018;-80
2021/08/09 09:07:34;;;;;;;2.28;0.90;;;19.30;77.60;;;;;;5014716;28;20105;-85
2021/08/09 09:10:13;;;;;;;2.03;0.80;;;19.40;77.60;;;;;;5014607;28;20443;-80
2021/08/09 09:12:39;;;;;;;2.70;0.70;;;19.50;76.90;;;;;;5011755;28;20026;-82
2021/08/09 09:15:06;;;;;;;2.47;0.90;;;19.40;76.50;;;;;;5014705;28;20072;-78
2021/08/09 09:17:39;;;;;;;1.35;0.60;;;19.40;77.90;;;;;;5014607;28;20061;-81
2021/08/09 09:20:22;;;;;;;1.98;0.45;;;19.50;75.40;;;;;;5014644;28;20045;-79
2021/08/09 09:22:48;;;;;;;1.50;0.80;;;19.60;75.10;;;;;;5014081;28;20042;-79
2021/08/09 09:25:13;;;;;;;1.27;0.52;;;19.60;75.90;;;;;;5014529;28;20080;-78
2021/08/09 09:27:39;;;;;;;1.55;0.57;;;19.70;74.80;;;;;;5013038;28;20037;-82
2021/08/09 09:30:25;;;;;;;1.98;0.77;;;19.70;74.60;;;;;;5014046;28;20022;-79
2021/08/09 09:32:57;;;;;;;1.13;0.60;;;19.70;73.40;;;;;;5014698;28;20041;-85
2021/08/09 09:35:23;;;;;;;1.15;0.52;;;19.90;73.30;;;;;;5014153;28;20478;-79
2021/08/09 09:37:50;;;;;;;4.55;0.73;;;20.00;72.90;;;;;;5013864;28;20050;-79
2021/08/09 09:40:19;;;;;;;1.13;0.50;;;20.00;71.60;;;;;;5014650;28;20018;-77
2021/08/09 09:42:45;;;;;;;2.30;0.50;;;20.10;70.60;;;;;;5007155;28;20088;-78
2021/08/09 09:45:20;;;;;;;0.68;0.50;;;20.30;71.50;;;;;;5013180;28;20483;-79
2021/08/09 09:47:57;;;;;;;1.77;0.50;;;20.50;70.10;;;;;;5009254;28;20040;-77
2021/08/09 09:50:24;;;;;;;1.52;0.50;;;20.70;69.30;;;;;;4997675;28;20040;-78
2021/08/09 09:52:50;;;;;;;0.55;0.40;;;20.90;68.30;;;;;;5000322;28;20018;-79
2021/08/09 09:55:16;;;;;;;1.58;0.40;;;21.00;67.80;;;;;;5010893;28;20384;-79
2021/08/09 09:57:44;;;;;;;1.65;0.60;;;21.10;68.00;;;;;;5004682;28;20078;-78
2021/08/09 10:00:13;;;;;;;1.55;0.50;;;21.20;66.50;;;;;;4993899;28;20057;-78
2021/08/09 10:02:44;;;;;;;3.10;0.65;;;21.30;65.10;;;;;;5002153;28;20625;-78
2021/08/09 10:05:11;;;;;;;2.28;0.40;;;21.40;66.20;;;;;;5012959;28;20037;-81
2021/08/09 10:07:38;;;;;;;3.28;0.73;;;21.40;65.80;;;;;;5008768;28;20625;-81
2021/08/09 10:10:07;;;;;;;3.13;0.60;;;21.40;66.20;;;;;;5012383;28;20478;-80
2021/08/09 10:12:34;;;;;;;1.00;0.50;;;21.50;66.50;;;;;;5013716;28;20026;-78
2021/08/09 10:15:00;;;;;;;4.18;0.63;;;21.50;66.10;;;;;;5013697;28;20586;-76
2021/08/09 10:17:30;;;;;;;2.47;0.70;;;21.60;65.90;;;;;;5013012;28;20030;-78
2021/08/09 10:20:00;;;;;;;2.17;0.63;;;21.60;65.60;;;;;;4997394;28;20037;-76
2021/08/09 10:22:26;;;;;;;2.50;0.60;;;21.70;66.60;;;;;;5013187;28;20041;-77
2021/08/09 10:24:53;;;;;;;5.43;0.90;;;21.80;66.30;;;;;;5012973;28;20044;-78
2021/08/09 10:27:47;;;;;;;0.88;0.40;;;21.90;65.60;;;;;;5013407;28;20129;-78
2021/08/09 10:30:16;;;;;;;1.77;0.43;;;22.00;65.10;;;;;;5013607;28;20229;-78
2021/08/09 10:32:52;;;;;;;1.02;0.50;;;22.00;64.00;;;;;;5028848;28;20022;-80
2021/08/09 10:35:33;;;;;;;3.00;0.60;;;22.00;64.40;;;;;;5012469;28;20030;-79
2021/08/09 10:38:20;;;;;;;2.15;0.30;;;22.10;62.60;;;;;;5012520;28;20045;-79
2021/08/09 10:40:48;;;;;;;2.30;0.50;;;22.00;62.60;;;;;;5013209;28;20061;-79
2021/08/09 10:43:14;;;;;;;2.45;0.60;;;22.00;64.00;;;;;;5014055;28;20026;-77
2021/08/09 10:45:48;;;;;;;5.55;0.60;;;21.90;63.50;;;;;;5008977;28;20053;-79
2021/08/09 10:48:14;;;;;;;1.75;0.57;;;21.90;64.50;;;;;;5013362;28;20030;-76
2021/08/09 10:50:41;;;;;;;1.60;0.50;;;21.80;63.70;;;;;;5012260;28;20112;-79
2021/08/09 10:53:25;;;;;;;1.67;0.70;;;21.60;64.50;;;;;;5011428;28;20095;-78
2021/08/09 10:56:02;;;;;;;1.17;0.73;;;21.70;65.20;;;;;;5012754;28;20026;-77
2021/08/09 10:58:43;;;;;;;1.10;0.50;;;21.70;65.40;;;;;;5006208;28;20467;-77
2021/08/09 11:01:10;;;;;;;2.67;0.77;;;21.60;65.70;;;;;;5030058;28;20067;-78
2021/08/09 11:04:01;;;;;;;1.30;0.50;;;21.60;65.60;;;;;;5013864;28;20424;-74
2021/08/09 11:06:53;;;;;;;1.92;0.60;;;21.50;65.40;;;;;;5017518;28;20030;-75
2021/08/09 11:09:35;;;;;;;3.00;0.65;;;21.40;65.80;;;;;;5026906;28;20021;-76
2021/08/09 11:12:18;;;;;;;2.03;0.40;;;21.40;67.10;;;;;;5018969;28;20033;-76
2021/08/09 11:15:22;;;;;;;2.85;0.80;;;21.60;68.10;;;;;;5030175;28;20025;-80
2021/08/09 11:17:50;;;;;;;2.08;0.80;;;21.70;67.40;;;;;;4954950;28;20038;-76
2021/08/09 11:20:28;;;;;;;1.33;0.60;;;21.80;66.40;;;;;;4955548;28;20035;-77
2021/08/09 11:23:11;;;;;;;2.25;0.75;;;21.80;67.00;;;;;;4954170;28;20035;-76
2021/08/09 11:25:42;;;;;;;1.75;0.70;;;21.90;64.40;;;;;;4954901;28;20065;-78
2021/08/09 11:28:20;;;;;;;2.28;0.60;;;21.90;65.30;;;;;;4968559;28;20065;-78
2021/08/09 11:30:47;;;;;;;3.53;0.88;;;22.10;65.30;;;;;;4970760;28;20065;-78
2021/08/09 11:33:19;;;;;;;1.48;0.88;;;22.30;65.00;;;;;;4955322;28;20034;-78
2021/08/09 11:35:46;;;;;;;1.23;0.60;;;22.30;64.10;;;;;;4971315;28;20117;-81
2021/08/09 11:38:13;;;;;;;2.78;0.82;;;22.20;64.50;;;;;;4970808;28;20046;-76
2021/08/09 11:40:46;;;;;;;2.92;0.50;;;22.20;65.10;;;;;;4970642;28;20059;-76
2021/08/09 11:43:15;;;;;;;9.40;2.10;;;22.20;64.80;;;;;;4954056;28;20050;-76
2021/08/09 11:45:41;;;;;;;1.05;0.77;;;22.20;64.70;;;;;;4970465;28;20031;-76
2021/08/09 11:48:08;;;;;;;2.88;0.65;;;22.30;63.20;;;;;;4953283;28;20431;-76
2021/08/09 11:50:36;;;;;;;2.75;0.73;;;22.30;63.00;;;;;;4954466;28;20498;-79
2021/08/09 11:53:02;;;;;;;3.42;0.70;;;22.30;62.80;;;;;;4970537;28;20109;-78
2021/08/09 11:55:28;;;;;;;3.80;0.70;;;22.30;62.80;;;;;;4995554;28;20080;-77
2021/08/09 11:57:53;;;;;;;1.42;0.68;;;22.30;62.10;;;;;;5012471;28;20026;-78
2021/08/09 12:00:19;;;;;;;1.52;0.50;;;22.30;62.30;;;;;;5011730;28;20030;-76
2021/08/09 12:03:11;;;;;;;3.17;0.70;;;22.30;62.00;;;;;;5011058;28;20418;-88
2021/08/09 12:05:37;;;;;;;1.27;0.63;;;22.30;62.90;;;;;;4997694;28;20029;-76
2021/08/09 12:08:05;;;;;;;1.23;0.47;;;22.30;62.60;;;;;;5010750;28;20037;-76
2021/08/09 12:10:31;;;;;;;3.83;0.80;;;22.20;63.20;;;;;;5009606;28;20018;-76
2021/08/09 12:12:57;;;;;;;2.30;0.55;;;22.20;62.90;;;;;;5007472;28;20033;-76
2021/08/09 12:15:24;;;;;;;2.58;0.63;;;22.20;62.80;;;;;;5010878;28;20038;-78
2021/08/09 12:18:02;;;;;;;1.95;0.70;;;22.30;62.70;;;;;;5012017;28;20025;-79
2021/08/09 12:20:28;;;;;;;1.05;0.40;;;22.40;62.60;;;;;;5026044;28;20026;-77
2021/08/09 12:22:54;;;;;;;2.38;0.73;;;22.50;62.40;;;;;;5010437;28;20076;-76
2021/08/09 12:25:22;;;;;;;1.98;0.70;;;22.60;62.70;;;;;;5024148;28;20022;-78
2021/08/09 12:28:07;;;;;;;3.05;0.70;;;22.60;62.50;;;;;;5003458;28;20037;-78
2021/08/09 12:30:53;;;;;;;3.95;0.73;;;22.70;60.30;;;;;;5017579;28;20475;-77
2021/08/09 12:33:20;;;;;;;2.75;0.60;;;22.80;60.20;;;;;;5010565;28;20073;-79
2021/08/09 12:35:46;;;;;;;2.70;0.60;;;22.70;60.30;;;;;;5011282;28;20019;-78
2021/08/09 12:38:13;;;;;;;1.20;0.60;;;22.80;60.80;;;;;;5011239;28;20100;-80
2021/08/09 12:40:51;;;;;;;2.50;0.50;;;22.90;59.50;;;;;;5012148;28;20022;-78
2021/08/09 12:43:21;;;;;;;1.27;0.57;;;23.00;60.10;;;;;;5014034;28;20025;-78
2021/08/09 12:45:49;;;;;;;2.75;0.57;;;23.10;59.80;;;;;;5013140;28;20038;-80
2021/08/09 12:48:15;;;;;;;0.60;0.40;;;23.30;60.50;;;;;;5012908;28;20128;-77
2021/08/09 12:50:42;;;;;;;1.63;0.60;;;23.40;59.80;;;;;;5013976;28;20033;-76
2021/08/09 12:53:09;;;;;;;2.92;0.80;;;23.60;59.50;;;;;;5013386;28;20080;-80
2021/08/09 12:55:35;;;;;;;0.90;0.60;;;23.80;58.20;;;;;;5014246;28;20080;-77